Time;durP1;ratioP1;P1;durP2;ratioP2;P2;SDS_P1;SDS_P2;PMS_P1;PMS_P2;Temp;Humidity;BMP_temperature;BMP_pressure;BME280_temperature;BME280_humidity;BME280_pressure;Samples;Min_cycle;Max_cycle;Signal;HPM_P1;HPM_P2
2022/10/11 00:00:54;;;;;;;11.43;7.37;;;15.10;99.90;;;;;;5114864;28;20906;-55
2022/10/11 00:03:21;;;;;;;10.43;6.93;;;15.10;99.90;;;;;;5113173;28;20469;-55
2022/10/11 00:05:48;;;;;;;11.83;7.07;;;15.10;99.90;;;;;;5115827;28;20453;-55
2022/10/11 00:08:16;;;;;;;10.80;7.23;;;15.10;99.90;;;;;;5115472;28;20486;-56
2022/10/11 00:10:43;;;;;;;6.87;6.17;;;15.10;99.90;;;;;;5115030;28;20457;-56
2022/10/11 00:13:10;;;;;;;9.87;6.57;;;15.00;99.90;;;;;;5115628;28;20683;-55
2022/10/11 00:15:40;;;;;;;9.60;7.03;;;15.00;99.90;;;;;;5115095;28;20450;-56
2022/10/11 00:18:08;;;;;;;9.30;6.20;;;15.00;99.90;;;;;;5114849;28;20499;-56
2022/10/11 00:20:35;;;;;;;12.40;7.10;;;14.90;99.90;;;;;;5114936;28;20447;-55
2022/10/11 00:23:02;;;;;;;12.23;7.40;;;14.90;99.90;;;;;;5115063;28;20987;-55
2022/10/11 00:25:30;;;;;;;12.43;6.77;;;14.90;99.90;;;;;;5114851;28;20832;-55
2022/10/11 00:27:57;;;;;;;8.37;6.00;;;14.70;99.90;;;;;;5115207;28;20489;-55
2022/10/11 00:30:24;;;;;;;10.50;6.80;;;14.60;99.90;;;;;;5114207;28;20457;-56
2022/10/11 00:32:51;;;;;;;6.77;6.20;;;14.60;99.90;;;;;;5113892;28;20474;-56
2022/10/11 00:35:19;;;;;;;10.30;6.37;;;14.50;99.90;;;;;;5115104;28;20454;-56
2022/10/11 00:37:46;;;;;;;12.53;6.10;;;14.50;99.90;;;;;;5115170;28;20438;-56
2022/10/11 00:40:18;;;;;;;11.00;6.87;;;14.60;99.90;;;;;;5114324;28;20451;-56
2022/10/11 00:42:46;;;;;;;7.30;6.03;;;14.60;99.90;;;;;;5114591;28;21021;-56
2022/10/11 00:45:50;;;;;;;15.10;7.13;;;14.50;99.90;;;;;;5114934;28;20472;-56
2022/10/11 00:48:22;;;;;;;8.93;6.83;;;14.50;99.90;;;;;;5113912;28;20560;-56
2022/10/11 00:50:51;;;;;;;8.23;5.70;;;14.60;99.90;;;;;;5114890;28;20427;-56
2022/10/11 00:53:18;;;;;;;14.90;6.80;;;14.50;99.90;;;;;;5114456;28;20466;-56
2022/10/11 00:55:52;;;;;;;12.20;6.97;;;14.50;99.90;;;;;;5113576;28;20482;-55
2022/10/11 00:58:20;;;;;;;17.30;7.37;;;14.40;99.90;;;;;;5114628;28;20778;-55
2022/10/11 01:00:47;;;;;;;15.73;6.90;;;14.30;99.90;;;;;;5114421;28;20618;-55
2022/10/11 01:03:16;;;;;;;11.50;6.20;;;14.30;99.90;;;;;;5112993;28;20546;-55
2022/10/11 01:05:44;;;;;;;12.17;7.50;;;14.40;99.90;;;;;;5114331;28;20462;-55
2022/10/11 01:08:13;;;;;;;8.90;5.93;;;14.40;99.90;;;;;;5114153;28;20489;-55
2022/10/11 01:10:40;;;;;;;8.23;7.40;;;14.40;99.90;;;;;;5113721;28;20450;-56
2022/10/11 01:13:17;;;;;;;9.30;6.20;;;14.50;99.90;;;;;;5114444;28;20469;-55
2022/10/11 01:15:50;;;;;;;10.23;7.20;;;14.50;99.90;;;;;;5114237;28;20477;-56
2022/10/11 01:18:23;;;;;;;10.27;6.20;;;14.30;99.90;;;;;;5113943;27;20430;-56
2022/10/11 01:20:59;;;;;;;10.20;6.30;;;14.20;99.90;;;;;;5114226;28;20510;-55
2022/10/11 01:23:41;;;;;;;13.50;6.70;;;;;;;;;;5113755;28;20497;-57
2022/10/11 01:27:03;;;;;;;10.13;6.97;;;14.00;99.90;;;;;;5114272;28;20430;-56
2022/10/11 01:29:45;;;;;;;11.77;6.20;;;14.00;99.90;;;;;;5030969;28;20834;-56
2022/10/11 01:32:16;;;;;;;9.83;6.07;;;13.90;99.90;;;;;;5030211;28;20561;-56
2022/10/11 01:34:54;;;;;;;10.40;6.40;;;13.90;99.90;;;;;;5090779;28;20925;-56
2022/10/11 01:37:27;;;;;;;12.20;6.70;;;13.90;99.90;;;;;;5113387;28;20923;-56
2022/10/11 01:40:01;;;;;;;7.90;6.60;;;13.90;99.90;;;;;;5113277;28;20445;-56
2022/10/11 01:42:28;;;;;;;9.97;7.20;;;13.90;99.90;;;;;;5113398;28;20462;-56
2022/10/11 01:44:58;;;;;;;11.47;7.37;;;14.00;99.90;;;;;;5113331;28;20482;-56
2022/10/11 01:47:27;;;;;;;9.47;6.80;;;14.00;99.90;;;;;;5113155;28;20450;-56
2022/10/11 01:49:56;;;;;;;8.20;6.80;;;14.10;99.90;;;;;;5113331;28;20456;-56
2022/10/11 01:52:24;;;;;;;11.97;6.67;;;14.10;99.90;;;;;;5113289;28;20561;-56
2022/10/11 01:55:06;;;;;;;9.23;5.97;;;14.00;99.90;;;;;;5112920;28;20506;-56
2022/10/11 01:58:00;;;;;;;7.10;6.40;;;13.90;99.90;;;;;;5113549;28;20780;-56
2022/10/11 02:00:31;;;;;;;10.20;7.20;;;13.90;99.90;;;;;;5109681;28;20499;-56
2022/10/11 02:03:12;;;;;;;10.43;7.03;;;13.80;99.90;;;;;;5113157;28;20486;-56
2022/10/11 02:05:47;;;;;;;10.03;6.97;;;13.80;99.90;;;;;;5113298;28;20525;-56
2022/10/11 02:08:21;;;;;;;11.33;7.63;;;13.70;99.90;;;;;;5112403;28;20791;-56
2022/10/11 02:10:52;;;;;;;8.40;7.10;;;13.70;99.90;;;;;;5113549;28;20449;-57
2022/10/11 02:13:25;;;;;;;9.70;7.20;;;13.70;99.90;;;;;;5113432;28;20474;-57
2022/10/11 02:15:53;;;;;;;9.07;7.27;;;13.80;99.90;;;;;;5112605;28;20784;-57
2022/10/11 02:18:26;;;;;;;10.67;8.20;;;13.80;99.90;;;;;;5113131;28;20447;-57
2022/10/11 02:20:57;;;;;;;11.33;7.37;;;13.70;99.90;;;;;;5112960;28;20787;-56
2022/10/11 02:23:30;;;;;;;17.60;8.60;;;13.80;99.90;;;;;;5112637;28;20458;-56
2022/10/11 02:25:58;;;;;;;12.80;8.33;;;13.70;99.90;;;;;;5113031;28;20419;-56
2022/10/11 02:28:29;;;;;;;15.80;8.47;;;13.70;99.90;;;;;;5112823;28;20485;-57
2022/10/11 02:30:58;;;;;;;12.40;8.23;;;13.80;99.90;;;;;;5112531;28;20454;-57
2022/10/11 02:33:32;;;;;;;17.23;9.80;;;13.90;99.90;;;;;;5113003;28;20561;-56
2022/10/11 02:36:02;;;;;;;12.67;8.40;;;14.00;99.90;;;;;;5112944;28;20522;-57
2022/10/11 02:38:35;;;;;;;14.37;8.60;;;14.00;99.90;;;;;;5112154;28;20437;-57
2022/10/11 02:41:11;;;;;;;8.80;7.70;;;14.00;99.90;;;;;;5113188;28;20517;-56
2022/10/11 02:43:41;;;;;;;12.03;9.03;;;13.90;99.90;;;;;;5112757;28;20466;-56
2022/10/11 02:46:10;;;;;;;12.00;9.70;;;14.00;99.90;;;;;;5112058;28;20453;-57
2022/10/11 02:48:39;;;;;;;13.07;10.03;;;14.00;99.90;;;;;;5112688;28;20572;-56
2022/10/11 02:51:11;;;;;;;16.43;10.17;;;14.10;99.90;;;;;;5113328;28;20492;-56
2022/10/11 02:53:38;;;;;;;17.80;11.43;;;14.10;99.90;;;;;;5112166;28;20463;-57
2022/10/11 02:56:05;;;;;;;15.93;10.20;;;14.10;99.90;;;;;;5116545;28;20478;-57
2022/10/11 02:58:32;;;;;;;18.50;11.60;;;14.20;99.90;;;;;;5116919;28;20807;-57
2022/10/11 03:00:59;;;;;;;21.13;11.83;;;14.30;99.90;;;;;;5115963;28;20454;-57
2022/10/11 03:03:27;;;;;;;18.27;13.13;;;14.30;99.90;;;;;;5116272;28;20466;-57
2022/10/11 03:06:00;;;;;;;20.37;13.30;;;14.30;99.90;;;;;;5116645;28;20476;-57
2022/10/11 03:08:27;;;;;;;17.63;13.03;;;14.30;99.90;;;;;;5116127;28;20957;-57
2022/10/11 03:10:55;;;;;;;18.67;12.13;;;14.30;99.90;;;;;;5116820;28;20450;-57
2022/10/11 03:13:22;;;;;;;26.43;13.73;;;14.30;99.90;;;;;;5116497;28;20466;-57
2022/10/11 03:15:50;;;;;;;16.60;14.27;;;14.30;99.90;;;;;;5116359;28;20447;-57
2022/10/11 03:18:17;;;;;;;18.17;13.67;;;14.30;99.90;;;;;;5116224;28;20933;-57
2022/10/11 03:20:45;;;;;;;23.57;13.67;;;14.20;99.90;;;;;;5116324;28;20499;-57
2022/10/11 03:23:14;;;;;;;18.70;15.93;;;14.20;99.90;;;;;;5115959;28;20471;-57
2022/10/11 03:25:41;;;;;;;21.33;13.50;;;14.20;99.90;;;;;;5115419;28;20517;-57
2022/10/11 03:28:08;;;;;;;19.33;14.70;;;14.30;99.90;;;;;;5115988;28;20460;-57
2022/10/11 03:30:35;;;;;;;26.37;15.07;;;14.40;99.90;;;;;;5115797;27;20848;-56
2022/10/11 03:33:02;;;;;;;21.23;14.67;;;14.40;99.90;;;;;;5115606;28;20466;-57
2022/10/11 03:35:30;;;;;;;24.00;15.40;;;14.40;99.90;;;;;;5116097;28;20972;-57
2022/10/11 03:37:57;;;;;;;28.47;13.03;;;14.50;99.90;;;;;;5115155;28;20456;-56
2022/10/11 03:40:25;;;;;;;26.40;14.40;;;14.40;99.90;;;;;;5115901;28;20442;-56
2022/10/11 03:42:53;;;;;;;20.53;13.90;;;14.40;99.90;;;;;;5116164;28;20579;-56
2022/10/11 03:45:20;;;;;;;20.83;13.67;;;14.40;99.90;;;;;;5115106;28;20458;-56
2022/10/11 03:47:48;;;;;;;15.00;13.40;;;14.40;99.90;;;;;;5115736;28;20445;-56
2022/10/11 03:50:15;;;;;;;25.13;14.63;;;14.40;99.90;;;;;;5115174;28;20996;-56
2022/10/11 03:52:42;;;;;;;30.20;14.00;;;14.40;99.90;;;;;;5114770;28;20969;-56
2022/10/11 03:55:09;;;;;;;27.63;14.10;;;14.50;99.90;;;;;;5115380;28;21002;-56
2022/10/11 03:57:38;;;;;;;23.53;15.93;;;14.40;99.90;;;;;;5115681;28;20537;-56
2022/10/11 04:00:07;;;;;;;33.23;16.90;;;14.50;99.90;;;;;;5114391;28;20453;-56
2022/10/11 04:02:34;;;;;;;24.60;16.37;;;14.50;99.90;;;;;;5115430;28;20550;-56
2022/10/11 04:05:02;;;;;;;22.70;17.03;;;14.50;99.90;;;;;;5115755;28;20453;-56
2022/10/11 04:07:29;;;;;;;23.13;16.50;;;14.50;99.90;;;;;;5115131;28;20446;-56
2022/10/11 04:09:56;;;;;;;22.17;16.30;;;14.50;99.90;;;;;;5115534;28;20531;-56
2022/10/11 04:12:23;;;;;;;23.93;16.53;;;14.50;99.90;;;;;;5115648;28;20471;-56
2022/10/11 04:14:52;;;;;;;25.13;16.90;;;14.50;99.90;;;;;;5114666;28;20797;-58
2022/10/11 04:17:19;;;;;;;30.07;16.87;;;14.50;99.90;;;;;;5115127;28;20449;-56
2022/10/11 04:19:46;;;;;;;22.53;15.97;;;14.50;99.90;;;;;;5115518;28;20503;-56
2022/10/11 04:22:13;;;;;;;26.53;16.37;;;14.50;99.90;;;;;;5114353;28;20488;-56
2022/10/11 04:24:40;;;;;;;25.53;17.00;;;14.50;99.90;;;;;;5114951;28;20537;-56
2022/10/11 04:27:07;;;;;;;22.20;18.43;;;14.50;99.90;;;;;;5115528;28;20541;-56
2022/10/11 04:29:35;;;;;;;26.57;18.70;;;14.50;99.90;;;;;;5114468;28;20478;-56
2022/10/11 04:32:03;;;;;;;30.30;17.30;;;14.50;99.90;;;;;;5114350;28;20511;-56
2022/10/11 04:34:30;;;;;;;25.60;17.00;;;14.50;99.90;;;;;;5115333;28;20469;-56
2022/10/11 04:36:57;;;;;;;28.97;19.93;;;14.50;99.90;;;;;;5113724;28;20453;-56
2022/10/11 04:39:24;;;;;;;30.03;18.57;;;14.40;99.90;;;;;;5114686;28;21024;-56
2022/10/11 04:41:54;;;;;;;29.17;21.57;;;14.50;99.90;;;;;;5114890;28;20459;-56
2022/10/11 04:44:21;;;;;;;27.57;18.23;;;14.50;99.90;;;;;;5114267;28;20453;-56
2022/10/11 04:46:48;;;;;;;30.60;20.03;;;14.50;99.90;;;;;;5114884;28;20449;-56
2022/10/11 04:49:17;;;;;;;30.10;19.00;;;14.50;99.90;;;;;;5114523;28;20508;-56
2022/10/11 04:51:44;;;;;;;23.20;18.23;;;14.60;99.90;;;;;;5113443;28;20471;-56
2022/10/11 04:54:11;;;;;;;29.93;18.33;;;14.50;99.90;;;;;;5114853;28;20446;-56
2022/10/11 04:56:38;;;;;;;27.33;18.67;;;14.50;99.90;;;;;;5114434;28;20482;-56
2022/10/11 04:59:06;;;;;;;25.40;19.33;;;14.40;99.90;;;;;;5113391;28;20478;-56
2022/10/11 05:01:34;;;;;;;26.53;18.73;;;14.40;99.90;;;;;;5113934;28;20541;-56
2022/10/11 05:04:01;;;;;;;29.87;19.57;;;14.40;99.90;;;;;;5114057;28;20496;-56
2022/10/11 05:06:30;;;;;;;27.73;19.37;;;14.40;99.90;;;;;;5113276;28;20814;-56
2022/10/11 05:08:57;;;;;;;30.43;21.20;;;14.50;99.90;;;;;;5114224;28;20478;-56
2022/10/11 05:11:24;;;;;;;34.97;20.17;;;14.50;99.90;;;;;;5114133;28;20457;-56
2022/10/11 05:13:51;;;;;;;44.07;22.80;;;14.50;99.90;;;;;;5113065;28;20449;-56
2022/10/11 05:16:18;;;;;;;57.87;35.37;;;14.50;99.90;;;;;;5114049;28;20486;-56
2022/10/11 05:18:45;;;;;;;29.43;19.80;;;14.60;99.90;;;;;;5113467;28;20529;-56
2022/10/11 05:21:17;;;;;;;28.90;20.27;;;14.50;99.90;;;;;;5113013;28;20454;-56
2022/10/11 05:23:47;;;;;;;36.37;19.63;;;14.50;99.90;;;;;;5114180;28;20423;-56
2022/10/11 05:26:14;;;;;;;38.10;21.40;;;14.50;99.90;;;;;;5113437;28;21000;-56
2022/10/11 05:28:41;;;;;;;28.23;21.40;;;14.50;99.90;;;;;;5112766;28;20888;-56
2022/10/11 05:31:09;;;;;;;29.00;21.00;;;14.50;99.90;;;;;;5113610;28;20543;-57
2022/10/11 05:33:36;;;;;;;29.23;22.57;;;14.50;99.90;;;;;;5113332;28;20466;-56
2022/10/11 05:36:04;;;;;;;29.33;20.80;;;14.50;99.90;;;;;;5113484;28;20447;-56
2022/10/11 05:38:31;;;;;;;30.70;20.43;;;14.50;99.90;;;;;;5113852;28;20529;-56
2022/10/11 05:41:01;;;;;;;39.10;20.07;;;14.40;99.90;;;;;;5112821;28;20443;-56
2022/10/11 05:43:29;;;;;;;32.53;21.17;;;14.40;99.90;;;;;;5113522;28;20447;-56
2022/10/11 05:45:57;;;;;;;37.43;20.93;;;14.50;99.90;;;;;;5113726;28;20541;-56
2022/10/11 05:48:25;;;;;;;30.70;20.90;;;14.40;99.90;;;;;;5112345;28;20460;-57
2022/10/11 05:50:52;;;;;;;31.17;20.63;;;14.40;99.90;;;;;;5111152;28;20509;-56
2022/10/11 05:53:20;;;;;;;31.33;22.53;;;14.50;99.90;;;;;;5112915;28;20497;-57
2022/10/11 05:55:47;;;;;;;29.00;19.93;;;14.50;99.90;;;;;;5111915;28;20485;-57
2022/10/11 05:58:17;;;;;;;29.70;20.53;;;14.50;99.90;;;;;;5111836;28;20787;-56
2022/10/11 06:00:44;;;;;;;35.97;22.73;;;14.50;99.90;;;;;;5112030;28;20912;-57
2022/10/11 06:03:13;;;;;;;24.10;19.77;;;14.50;99.90;;;;;;5112350;28;20467;-56
2022/10/11 06:05:41;;;;;;;31.50;19.43;;;14.50;99.90;;;;;;5111840;28;20537;-56
2022/10/11 06:08:10;;;;;;;31.60;21.20;;;14.50;99.90;;;;;;5113125;28;20447;-56
2022/10/11 06:10:38;;;;;;;26.63;18.80;;;14.50;99.90;;;;;;5113077;28;20474;-57
2022/10/11 06:13:05;;;;;;;33.83;19.80;;;14.50;99.90;;;;;;5112402;28;20858;-57
2022/10/11 06:15:34;;;;;;;26.80;20.57;;;14.50;99.90;;;;;;5112880;28;20443;-55
2022/10/11 06:18:01;;;;;;;30.17;20.50;;;14.50;99.90;;;;;;5113038;28;20450;-56
2022/10/11 06:20:29;;;;;;;24.17;18.03;;;14.50;99.90;;;;;;5112033;28;20442;-56
2022/10/11 06:22:56;;;;;;;35.10;18.90;;;14.60;99.90;;;;;;5112356;28;20541;-56
2022/10/11 06:25:23;;;;;;;30.50;18.73;;;14.50;99.90;;;;;;5112831;28;20454;-56
2022/10/11 06:27:50;;;;;;;25.07;18.83;;;14.50;99.90;;;;;;5111218;28;20534;-56
2022/10/11 06:30:17;;;;;;;25.57;17.00;;;14.50;99.90;;;;;;5111812;28;20568;-56
2022/10/11 06:32:46;;;;;;;24.23;18.50;;;14.50;99.90;;;;;;5113125;28;20490;-56
2022/10/11 06:35:13;;;;;;;25.90;17.13;;;14.50;99.90;;;;;;5112628;28;20454;-56
2022/10/11 06:37:40;;;;;;;26.33;18.97;;;14.60;99.90;;;;;;5113021;28;20446;-56
2022/10/11 06:40:08;;;;;;;27.10;18.90;;;14.60;99.90;;;;;;5112835;28;20445;-56
2022/10/11 06:42:35;;;;;;;25.47;18.57;;;14.60;99.90;;;;;;5111408;28;20553;-56
2022/10/11 06:45:02;;;;;;;28.97;19.27;;;14.60;99.90;;;;;;5112489;28;20529;-59
2022/10/11 06:47:30;;;;;;;25.90;18.90;;;14.60;99.90;;;;;;5112685;28;20446;-57
2022/10/11 06:49:58;;;;;;;20.37;16.50;;;14.60;99.90;;;;;;5112288;28;20510;-56
2022/10/11 06:52:25;;;;;;;24.90;18.03;;;14.60;99.90;;;;;;5112991;28;20890;-55
2022/10/11 06:54:53;;;;;;;25.63;18.00;;;14.60;99.90;;;;;;5112787;28;20485;-56
2022/10/11 06:57:20;;;;;;;30.37;16.33;;;14.60;99.90;;;;;;5112131;28;20461;-55
2022/10/11 06:59:47;;;;;;;28.43;17.63;;;14.60;99.90;;;;;;5111725;28;20529;-55
2022/10/11 07:02:14;;;;;;;21.93;16.77;;;14.60;99.90;;;;;;5112223;28;20470;-54
2022/10/11 07:04:41;;;;;;;30.50;20.00;;;14.60;99.90;;;;;;5110258;28;20447;-55
2022/10/11 07:07:13;;;;;;;20.43;16.30;;;14.60;99.90;;;;;;5112391;28;20474;-54
2022/10/11 07:09:40;;;;;;;24.23;17.43;;;14.70;99.90;;;;;;5111840;28;20473;-55
2022/10/11 07:12:08;;;;;;;29.17;17.13;;;14.70;99.90;;;;;;5110538;28;20988;-55
2022/10/11 07:14:35;;;;;;;26.93;17.47;;;14.70;99.90;;;;;;5111100;28;20832;-56
2022/10/11 07:17:03;;;;;;;24.93;17.83;;;14.70;99.90;;;;;;5111843;28;20431;-55
2022/10/11 07:19:30;;;;;;;25.67;17.30;;;14.70;99.90;;;;;;5110144;28;20447;-55
2022/10/11 07:21:57;;;;;;;33.00;18.77;;;14.80;99.90;;;;;;5111112;28;20980;-55
2022/10/11 07:24:26;;;;;;;26.53;17.77;;;14.80;99.90;;;;;;5111330;28;20526;-55
2022/10/11 07:26:54;;;;;;;30.20;17.47;;;14.80;99.90;;;;;;5110227;28;20527;-55
2022/10/11 07:29:21;;;;;;;26.40;19.37;;;14.80;99.90;;;;;;5111992;28;20448;-55
2022/10/11 07:31:48;;;;;;;32.70;18.37;;;14.80;99.90;;;;;;5111847;28;20573;-55
2022/10/11 07:34:15;;;;;;;28.67;17.60;;;14.80;99.90;;;;;;5111616;28;20530;-55
2022/10/11 07:36:42;;;;;;;24.37;18.67;;;14.90;99.90;;;;;;5112118;28;20500;-55
2022/10/11 07:39:10;;;;;;;22.37;18.50;;;14.90;99.90;;;;;;5112073;28;20446;-55
2022/10/11 07:41:39;;;;;;;29.33;19.20;;;14.90;99.90;;;;;;5112955;28;20541;-55
2022/10/11 07:44:06;;;;;;;24.70;18.60;;;15.00;99.90;;;;;;5115570;28;20534;-55
2022/10/11 07:46:33;;;;;;;30.90;17.00;;;15.10;99.90;;;;;;5115443;28;20447;-55
2022/10/11 07:49:00;;;;;;;28.80;17.57;;;15.10;99.90;;;;;;5114154;28;20479;-55
2022/10/11 07:51:27;;;;;;;25.90;18.67;;;15.10;99.90;;;;;;5115409;28;20857;-56
2022/10/11 07:53:56;;;;;;;19.90;16.37;;;15.20;99.90;;;;;;5115419;28;20492;-55
2022/10/11 07:56:25;;;;;;;22.40;17.20;;;15.30;99.90;;;;;;5113219;28;20473;-56
2022/10/11 07:58:55;;;;;;;18.73;16.73;;;15.30;99.90;;;;;;5115294;28;20466;-55
2022/10/11 08:01:22;;;;;;;25.63;17.23;;;15.30;99.90;;;;;;5114938;28;20447;-55
2022/10/11 08:03:50;;;;;;;22.07;17.10;;;15.30;99.90;;;;;;5113416;28;20789;-55
2022/10/11 08:06:20;;;;;;;24.70;16.40;;;15.20;99.90;;;;;;5114734;28;20493;-55
2022/10/11 08:08:47;;;;;;;23.33;15.60;;;15.20;99.90;;;;;;5115448;28;20639;-55
2022/10/11 08:11:21;;;;;;;25.70;16.73;;;15.30;99.90;;;;;;5112885;28;20541;-55
2022/10/11 08:13:48;;;;;;;26.57;16.93;;;15.40;99.90;;;;;;5114196;28;20426;-55
2022/10/11 08:16:17;;;;;;;19.83;16.00;;;15.40;99.90;;;;;;5114964;28;20537;-56
2022/10/11 08:18:44;;;;;;;25.40;16.00;;;15.50;99.90;;;;;;5112211;28;20457;-55
2022/10/11 08:21:13;;;;;;;28.27;16.43;;;15.60;99.90;;;;;;5113901;28;20529;-55
2022/10/11 08:23:40;;;;;;;22.80;16.07;;;15.60;99.90;;;;;;5115244;28;20553;-56
2022/10/11 08:26:08;;;;;;;24.03;14.13;;;15.40;99.90;;;;;;5113803;28;20442;-56
2022/10/11 08:28:35;;;;;;;27.10;16.10;;;15.50;99.90;;;;;;5115046;28;20534;-56
2022/10/11 08:31:03;;;;;;;29.63;16.30;;;15.40;99.90;;;;;;5115109;28;20563;-55
2022/10/11 08:33:32;;;;;;;23.80;17.10;;;15.50;99.90;;;;;;5112434;28;20811;-54
2022/10/11 08:35:59;;;;;;;25.07;15.53;;;15.50;99.90;;;;;;5114631;28;20516;-56
2022/10/11 08:38:26;;;;;;;25.63;14.90;;;15.40;99.90;;;;;;5113809;28;20447;-54
2022/10/11 08:40:56;;;;;;;22.27;16.00;;;15.40;99.90;;;;;;5112366;28;20533;-55
2022/10/11 08:43:32;;;;;;;26.03;16.13;;;15.40;99.90;;;;;;5114826;28;20644;-55
2022/10/11 08:46:02;;;;;;;26.60;17.47;;;15.40;99.90;;;;;;5114407;28;20717;-54
2022/10/11 08:48:35;;;;;;;25.60;15.90;;;15.30;99.90;;;;;;5112741;28;20447;-56
2022/10/11 08:51:09;;;;;;;23.60;17.43;;;15.20;99.90;;;;;;5112482;28;20561;-56
2022/10/11 08:53:45;;;;;;;26.57;17.60;;;15.20;99.90;;;;;;5113854;28;20519;-56
2022/10/11 08:56:14;;;;;;;31.37;16.80;;;15.00;99.90;;;;;;5111408;28;20472;-55
2022/10/11 08:58:46;;;;;;;24.47;16.70;;;15.10;99.90;;;;;;5114374;28;20442;-55
2022/10/11 09:01:18;;;;;;;27.60;17.43;;;15.10;99.90;;;;;;5114222;28;20446;-55
2022/10/11 09:03:47;;;;;;;23.80;17.77;;;15.10;99.90;;;;;;5111307;28;20441;-56
2022/10/11 09:06:24;;;;;;;23.70;17.30;;;15.10;99.90;;;;;;5114022;28;20888;-56
2022/10/11 09:09:09;;;;;;;26.90;19.20;;;15.10;99.90;;;;;;5114110;28;20442;-56
2022/10/11 09:11:51;;;;;;;23.83;19.13;;;15.20;99.90;;;;;;5111582;28;20844;-55
2022/10/11 09:14:44;;;;;;;24.13;18.87;;;15.20;99.90;;;;;;5114070;28;20905;-56
2022/10/11 09:17:22;;;;;;;26.90;18.10;;;15.20;99.90;;;;;;5111711;28;20541;-56
2022/10/11 09:20:17;;;;;;;25.97;18.37;;;15.10;99.90;;;;;;5113888;28;20449;-55
2022/10/11 09:22:52;;;;;;;28.10;17.97;;;15.20;99.90;;;;;;5100310;28;20569;-56
2022/10/11 09:25:25;;;;;;;24.63;17.20;;;15.20;99.90;;;;;;5112750;28;20433;-56
2022/10/11 09:28:05;;;;;;;21.87;16.80;;;15.20;99.90;;;;;;5114186;28;20435;-56
2022/10/11 09:30:33;;;;;;;29.13;17.37;;;15.30;99.90;;;;;;5114010;28;20535;-56
2022/10/11 09:33:12;;;;;;;29.10;19.33;;;15.30;99.90;;;;;;5112327;28;20474;-56
2022/10/11 09:35:44;;;;;;;29.83;16.67;;;15.30;99.90;;;;;;5113772;28;20771;-55
2022/10/11 09:38:22;;;;;;;22.90;17.47;;;15.30;99.90;;;;;;5113681;28;20427;-56
2022/10/11 09:40:59;;;;;;;24.27;17.27;;;15.30;99.90;;;;;;5111076;28;20449;-55
2022/10/11 09:43:26;;;;;;;26.77;18.40;;;15.40;99.90;;;;;;5113575;28;20496;-56
2022/10/11 09:45:53;;;;;;;31.13;19.53;;;15.30;99.90;;;;;;5112997;28;20476;-56
2022/10/11 09:48:22;;;;;;;22.90;18.67;;;15.20;99.90;;;;;;5111273;28;20453;-55
2022/10/11 09:50:54;;;;;;;30.53;17.30;;;15.20;99.90;;;;;;5113216;28;20565;-55
2022/10/11 09:53:52;;;;;;;26.40;19.00;;;15.30;99.90;;;;;;5113452;28;20465;-55
2022/10/11 09:56:20;;;;;;;26.37;17.13;;;15.50;99.90;;;;;;5111593;28;20892;-55
2022/10/11 09:59:05;;;;;;;24.57;18.90;;;15.50;99.90;;;;;;5113103;28;20433;-56
2022/10/11 10:01:33;;;;;;;24.10;16.47;;;15.50;99.90;;;;;;5111021;28;20445;-56
2022/10/11 10:04:09;;;;;;;29.03;16.60;;;15.60;99.90;;;;;;5113173;28;20525;-56
2022/10/11 10:06:38;;;;;;;28.70;17.53;;;15.70;99.90;;;;;;5113136;28;20510;-56
2022/10/11 10:09:27;;;;;;;24.47;17.60;;;15.70;99.90;;;;;;5111223;28;20477;-56
2022/10/11 10:11:55;;;;;;;23.23;15.97;;;15.70;99.90;;;;;;5113387;28;20624;-55
2022/10/11 10:14:25;;;;;;;28.20;18.40;;;15.70;99.90;;;;;;5112902;28;20501;-55
2022/10/11 10:17:17;;;;;;;;;;;;;;;;;;;;;
2022/10/11 10:19:50;;;;;;;19.93;16.10;;;15.60;99.90;;;;;;5107460;28;20442;-56
2022/10/11 10:22:22;;;;;;;28.37;16.60;;;15.70;99.90;;;;;;5110991;28;20461;-56
2022/10/11 10:24:51;;;;;;;35.47;17.20;;;15.70;99.90;;;;;;5113160;28;20457;-56
2022/10/11 10:27:21;;;;;;;24.03;16.70;;;15.80;99.90;;;;;;5110992;28;20446;-56
2022/10/11 10:30:14;;;;;;;25.50;17.03;;;15.80;99.90;;;;;;5112640;28;20445;-56
2022/10/11 10:32:48;;;;;;;28.50;18.27;;;15.80;99.90;;;;;;5112956;28;20528;-54
2022/10/11 10:35:27;;;;;;;22.47;16.87;;;15.80;99.90;;;;;;5110482;28;20453;-56
2022/10/11 10:38:06;;;;;;;31.40;16.93;;;15.90;99.90;;;;;;5112852;28;20418;-56
2022/10/11 10:40:41;;;;;;;23.10;17.20;;;15.90;99.90;;;;;;5112926;28;20760;-55
2022/10/11 10:43:14;;;;;;;24.50;15.30;;;15.80;99.90;;;;;;5110059;28;20519;-56
2022/10/11 10:46:09;;;;;;;24.80;17.40;;;15.70;99.90;;;;;;5112783;28;20423;-55
2022/10/11 10:48:43;;;;;;;30.03;17.67;;;15.60;99.90;;;;;;5111360;28;20979;-56
2022/10/11 10:51:22;;;;;;;23.63;16.90;;;15.70;99.90;;;;;;5112544;28;20495;-56
2022/10/11 10:53:58;;;;;;;25.53;17.30;;;15.70;99.90;;;;;;5112188;28;20431;-56
2022/10/11 10:56:32;;;;;;;25.80;14.90;;;15.80;99.90;;;;;;5109478;28;20484;-56
2022/10/11 10:59:10;;;;;;;22.80;16.27;;;15.80;99.90;;;;;;5112527;28;20427;-56
2022/10/11 11:01:48;;;;;;;19.97;14.97;;;15.80;99.90;;;;;;5112636;28;20466;-56
2022/10/11 11:04:24;;;;;;;22.27;15.50;;;15.80;99.90;;;;;;5109709;28;20419;-56
2022/10/11 11:06:57;;;;;;;27.77;15.23;;;15.90;99.90;;;;;;5112572;28;20430;-56
2022/10/11 11:09:39;;;;;;;20.67;15.80;;;15.90;99.90;;;;;;5112407;28;20419;-56
2022/10/11 11:12:20;;;;;;;24.40;14.23;;;16.00;99.90;;;;;;5110312;28;20585;-56
2022/10/11 11:14:58;;;;;;;18.73;14.93;;;16.00;99.90;;;;;;5112786;28;20437;-56
2022/10/11 11:17:40;;;;;;;19.73;14.57;;;16.10;99.90;;;;;;5116353;28;20786;-56
2022/10/11 11:20:24;;;;;;;17.00;15.00;;;16.10;99.90;;;;;;5113894;28;20419;-56
2022/10/11 11:22:57;;;;;;;19.00;14.80;;;15.90;99.90;;;;;;5116152;28;20470;-55
2022/10/11 11:25:35;;;;;;;24.37;17.47;;;15.80;99.90;;;;;;5115538;28;20407;-56
2022/10/11 11:28:31;;;;;;;20.90;15.80;;;15.70;99.90;;;;;;5114379;28;20427;-56
2022/10/11 11:31:07;;;;;;;21.23;14.13;;;15.70;99.90;;;;;;5113780;28;20485;-56
2022/10/11 11:33:45;;;;;;;26.87;17.10;;;15.70;99.90;;;;;;5113809;28;20465;-56
2022/10/11 11:36:16;;;;;;;20.33;16.03;;;15.80;99.90;;;;;;5115863;28;20901;-57
2022/10/11 11:38:48;;;;;;;20.40;13.70;;;15.80;99.90;;;;;;5115904;28;20799;-56
2022/10/11 11:41:21;;;;;;;22.90;15.40;;;15.70;99.90;;;;;;5113605;28;20513;-56
2022/10/11 11:43:59;;;;;;;24.73;15.03;;;15.90;99.90;;;;;;5115981;28;20513;-56
2022/10/11 11:46:30;;;;;;;25.73;18.00;;;15.80;99.90;;;;;;5115359;28;20799;-56
2022/10/11 11:49:02;;;;;;;38.73;23.03;;;15.80;99.90;;;;;;5113922;28;20430;-55
2022/10/11 11:51:33;;;;;;;39.07;21.30;;;15.80;99.90;;;;;;5115823;28;20472;-56
2022/10/11 11:54:15;;;;;;;23.07;14.97;;;15.70;99.90;;;;;;5114764;28;20462;-56
2022/10/11 11:57:07;;;;;;;47.90;26.03;;;15.80;99.90;;;;;;5113110;28;21005;-56
2022/10/11 11:59:38;;;;;;;37.70;21.50;;;15.80;99.90;;;;;;5115630;27;20446;-56
2022/10/11 12:02:42;;;;;;;25.80;17.77;;;15.80;99.90;;;;;;5115322;28;20455;-56
2022/10/11 12:05:13;;;;;;;29.63;17.80;;;16.10;99.90;;;;;;5115020;28;20457;-56
2022/10/11 12:07:58;;;;;;;22.33;13.60;;;16.10;99.90;;;;;;5115456;28;20480;-56
2022/10/11 12:10:36;;;;;;;16.47;14.30;;;16.40;99.90;;;;;;5112531;28;20415;-56
2022/10/11 12:13:09;;;;;;;16.37;12.77;;;16.40;99.90;;;;;;5115330;28;20486;-56
2022/10/11 12:15:37;;;;;;;18.50;12.93;;;16.30;99.90;;;;;;5115146;28;20514;-56
2022/10/11 12:18:15;;;;;;;16.77;13.13;;;16.40;99.90;;;;;;5112968;28;20443;-57
2022/10/11 12:20:44;;;;;;;20.07;13.50;;;16.10;99.90;;;;;;5114771;28;20439;-56
2022/10/11 12:23:47;;;;;;;19.13;13.13;;;16.20;99.90;;;;;;5114290;28;20956;-56
2022/10/11 12:26:42;;;;;;;18.53;12.40;;;16.30;99.90;;;;;;5112259;28;20513;-56
2022/10/11 12:29:45;;;;;;;20.67;14.40;;;16.10;99.90;;;;;;5114666;28;20427;-56
2022/10/11 12:32:50;;;;;;;14.70;11.50;;;16.20;99.90;;;;;;5114806;28;20486;-56
2022/10/11 12:35:47;;;;;;;24.43;13.00;;;16.10;99.90;;;;;;5112446;28;20450;-56
2022/10/11 12:38:18;;;;;;;17.00;14.10;;;16.20;99.90;;;;;;5114585;28;20433;-56
2022/10/11 12:40:47;;;;;;;23.10;12.23;;;16.10;99.90;;;;;;5112557;28;20429;-56
2022/10/11 12:43:36;;;;;;;19.40;12.30;;;15.90;99.90;;;;;;5114651;28;20473;-56
2022/10/11 12:46:41;;;;;;;19.10;12.97;;;15.80;99.90;;;;;;5114611;28;20429;-56
2022/10/11 12:49:42;;;;;;;23.50;13.60;;;15.90;99.90;;;;;;5112633;28;20532;-56
2022/10/11 12:52:24;;;;;;;20.17;13.70;;;15.90;99.90;;;;;;5114400;28;20492;-56
2022/10/11 12:55:07;;;;;;;15.87;11.60;;;16.00;99.90;;;;;;5112401;28;22084;-56